Kennard Corner, Washington
Current Conditions -  °F | °C
As of 9:00 AM on Wednesday 26 Nov 2014 (Local Time) from KPAE Reporting Station
Overcast Overcast  
Wind Chill: 55°   Ceiling: 800
Heat Index: 55°   Visibility: 10mi
Dew Point: 51°   Wind: 13mph
Humidity: 86%   Direction: 190°S
Pressure: 30.1"   Gusts: 24mph
Location:  47.7933°N, 122.207°W
Report Text: KPAE 261700Z 19011G21KT 10SM OVC008 13/11 A3010 RMK AO2 T01280106
Loading
Personal Weather Stations






























Interactive Weather Map New forecast layout! Learn more

10-Day Weather Forecast

Advertisements
Track Severe Weather on mobile